Time;durP1;ratioP1;P1;durP2;ratioP2;P2;SDS_P1;SDS_P2;PMS_P1;PMS_P2;Temp;Humidity;BMP_temperature;BMP_pressure;BME280_temperature;BME280_humidity;BME280_pressure;Samples;Min_cycle;Max_cycle;Signal;HPM_P1;HPM_P2
2023/03/01 00:04:21;;;;;;;33.45;17.90;;;-2.00;99.90;;;;;;5052782;28;20032;-66
2023/03/01 00:06:47;;;;;;;29.15;16.95;;;-2.00;99.90;;;;;;5048744;28;20041;-66
2023/03/01 00:09:14;;;;;;;31.23;16.55;;;-2.00;99.90;;;;;;5044631;28;20096;-66
2023/03/01 00:11:39;;;;;;;32.40;16.35;;;-2.00;99.90;;;;;;5039572;28;20044;-66
2023/03/01 00:14:06;;;;;;;30.58;16.75;;;-2.00;99.90;;;;;;5047606;28;20033;-66
2023/03/01 00:16:34;;;;;;;36.63;19.92;;;-2.10;99.90;;;;;;5045918;28;20048;-66
2023/03/01 00:19:00;;;;;;;37.30;20.30;;;-2.10;99.90;;;;;;5040850;28;20040;-66
2023/03/01 00:21:26;;;;;;;41.15;20.50;;;-2.00;99.90;;;;;;5053506;28;20543;-66
2023/03/01 00:23:52;;;;;;;32.33;17.13;;;-2.10;99.90;;;;;;5050729;28;20041;-66
2023/03/01 00:26:19;;;;;;;44.42;22.02;;;-2.10;99.90;;;;;;5053558;28;20071;-66
2023/03/01 00:28:45;;;;;;;37.72;21.23;;;-2.20;99.90;;;;;;5053699;28;20033;-66
2023/03/01 00:31:18;;;;;;;37.20;20.08;;;-2.20;99.90;;;;;;5039514;28;20412;-66
2023/03/01 00:33:44;;;;;;;35.05;17.38;;;-2.20;99.90;;;;;;5051109;28;20523;-66
2023/03/01 00:36:11;;;;;;;33.28;16.88;;;-2.20;99.90;;;;;;5049674;28;20108;-66
2023/03/01 00:38:38;;;;;;;31.00;15.35;;;-2.20;99.90;;;;;;5043486;28;20500;-66
2023/03/01 00:44:29;;;;;;;29.08;15.88;;;-2.30;99.90;;;;;;5058170;28;20051;-66
2023/03/01 00:46:55;;;;;;;31.50;15.80;;;-2.40;99.90;;;;;;5039035;28;20041;-67
2023/03/01 00:49:20;;;;;;;31.80;18.25;;;-2.40;99.90;;;;;;5056418;28;20045;-67
2023/03/01 00:51:46;;;;;;;31.60;18.35;;;-2.50;99.90;;;;;;5044907;28;20102;-67
2023/03/01 00:54:11;;;;;;;35.30;19.30;;;-2.50;99.90;;;;;;5041330;28;20132;-67
2023/03/01 00:56:37;;;;;;;29.42;15.60;;;-2.50;99.90;;;;;;5052829;28;20033;-67
2023/03/01 00:59:02;;;;;;;34.00;17.83;;;-2.50;99.90;;;;;;5036142;28;20033;-67
2023/03/01 01:01:30;;;;;;;37.15;19.17;;;-2.60;99.90;;;;;;5053002;28;20040;-67
2023/03/01 01:04:01;;;;;;;32.58;16.77;;;-2.60;99.90;;;;;;5053055;28;20040;-67
2023/03/01 01:06:29;;;;;;;31.15;16.15;;;-2.60;99.90;;;;;;5052859;28;20045;-67
2023/03/01 01:08:56;;;;;;;38.50;20.33;;;-2.60;99.90;;;;;;5052659;28;20068;-67
2023/03/01 01:11:23;;;;;;;36.95;18.95;;;-2.60;99.90;;;;;;5052393;28;20115;-67
2023/03/01 01:13:49;;;;;;;38.97;18.92;;;-2.60;99.90;;;;;;5049025;28;20131;-67
2023/03/01 01:16:16;;;;;;;39.30;20.55;;;-2.60;99.90;;;;;;5049246;28;20064;-67
2023/03/01 01:18:42;;;;;;;42.88;21.15;;;-2.60;99.90;;;;;;5052292;28;20043;-67
2023/03/01 01:21:11;;;;;;;32.80;17.13;;;-2.60;99.90;;;;;;5053511;28;20076;-67
2023/03/01 01:23:38;;;;;;;36.13;17.90;;;-2.50;99.90;;;;;;5037287;28;20037;-67
2023/03/01 01:26:09;;;;;;;35.08;18.30;;;-2.50;99.90;;;;;;5037884;28;20032;-67
2023/03/01 01:28:36;;;;;;;31.35;16.38;;;-2.50;99.90;;;;;;5040552;28;20110;-67
2023/03/01 01:31:02;;;;;;;40.28;20.35;;;-2.60;99.90;;;;;;5052293;28;20408;-67
2023/03/01 01:33:28;;;;;;;39.88;19.55;;;-2.60;99.90;;;;;;5052201;28;20475;-67
2023/03/01 01:35:53;;;;;;;42.05;21.13;;;-2.60;99.90;;;;;;5052331;28;20078;-67
2023/03/01 01:38:21;;;;;;;37.28;19.80;;;-2.60;99.90;;;;;;5052231;28;20043;-67
2023/03/01 01:40:47;;;;;;;37.75;20.23;;;-2.60;99.90;;;;;;5052349;28;20080;-67
2023/03/01 01:43:25;;;;;;;43.55;19.75;;;-2.60;99.90;;;;;;5052553;28;20507;-67
2023/03/01 01:45:52;;;;;;;41.30;20.75;;;-2.60;99.90;;;;;;5052376;28;20049;-67
2023/03/01 01:48:24;;;;;;;40.15;19.55;;;-2.60;99.90;;;;;;5052385;28;20560;-67
2023/03/01 01:50:56;;;;;;;38.10;20.87;;;-2.60;99.90;;;;;;5052252;28;20049;-67
2023/03/01 01:53:22;;;;;;;41.92;20.55;;;-2.60;99.90;;;;;;5052266;28;20283;-67
2023/03/01 01:55:53;;;;;;;42.28;20.73;;;-2.60;99.90;;;;;;5051966;28;20036;-67
2023/03/01 01:58:21;;;;;;;44.60;21.27;;;-2.60;99.90;;;;;;5052051;28;20037;-67
2023/03/01 02:00:48;;;;;;;42.80;21.67;;;-2.60;99.90;;;;;;5048416;28;20487;-67
2023/03/01 02:03:20;;;;;;;39.53;21.30;;;-2.50;99.90;;;;;;5041493;28;20044;-67
2023/03/01 02:09:26;;;;;;;68.57;22.00;;;-2.50;99.90;;;;;;5043809;28;20123;-68
2023/03/01 02:11:53;;;;;;;104.85;24.13;;;-2.40;99.90;;;;;;5036539;28;20476;-68
2023/03/01 02:14:19;;;;;;;99.55;24.27;;;-2.40;99.90;;;;;;5052065;28;20077;-68
2023/03/01 02:16:45;;;;;;;177.63;27.42;;;-2.30;99.90;;;;;;5044804;28;20065;-68
2023/03/01 02:19:24;;;;;;;167.20;26.95;;;-2.20;99.90;;;;;;5042510;28;20469;-68
2023/03/01 02:22:02;;;;;;;104.22;24.27;;;-2.10;99.90;;;;;;5035491;28;20120;-68
2023/03/01 02:24:50;;;;;;;125.95;26.73;;;-2.00;99.90;;;;;;5031894;28;20067;-68
2023/03/01 02:27:16;;;;;;;92.60;26.65;;;-1.90;99.90;;;;;;5062082;28;20123;-68
2023/03/01 02:29:43;;;;;;;90.47;26.88;;;-1.90;99.90;;;;;;5052232;28;20566;-68
2023/03/01 02:32:11;;;;;;;96.30;27.25;;;-1.80;99.90;;;;;;5050767;28;20033;-68
2023/03/01 02:34:38;;;;;;;158.98;29.73;;;-1.80;99.90;;;;;;5062073;28;20061;-68
2023/03/01 02:37:12;;;;;;;164.48;29.02;;;-1.80;99.90;;;;;;5045826;28;20049;-68
2023/03/01 02:39:45;;;;;;;94.65;26.23;;;-1.80;99.90;;;;;;5048385;28;20478;-68
2023/03/01 02:42:15;;;;;;;79.70;26.05;;;-1.80;99.90;;;;;;5037879;28;20045;-68
2023/03/01 02:44:41;;;;;;;166.70;27.02;;;-1.80;99.90;;;;;;5071994;28;20064;-68
2023/03/01 02:47:06;;;;;;;153.32;27.05;;;-1.90;99.90;;;;;;5052340;28;20033;-68
2023/03/01 02:49:34;;;;;;;152.05;25.40;;;-1.90;99.90;;;;;;5055231;28;20052;-68
2023/03/01 02:52:28;;;;;;;245.65;30.80;;;-1.90;99.90;;;;;;5055044;28;20174;-68
2023/03/01 02:55:12;;;;;;;99.35;25.67;;;-2.10;99.90;;;;;;5049866;28;20052;-68
2023/03/01 02:57:42;;;;;;;58.08;23.52;;;-2.20;99.90;;;;;;5061476;28;20046;-68
2023/03/01 03:00:18;;;;;;;70.45;24.55;;;-2.20;99.90;;;;;;5052207;28;20037;-68
2023/03/01 03:03:19;;;;;;;78.97;23.98;;;-2.20;99.90;;;;;;5038099;28;20047;-68
2023/03/01 03:05:45;;;;;;;68.07;23.25;;;-2.30;99.90;;;;;;5054788;28;20123;-68
2023/03/01 03:08:11;;;;;;;52.15;22.90;;;-2.30;99.90;;;;;;5054900;28;20499;-68
2023/03/01 03:10:40;;;;;;;66.75;22.13;;;-2.40;99.90;;;;;;5037238;28;20038;-68
2023/03/01 03:13:12;;;;;;;50.72;22.35;;;-2.40;99.90;;;;;;5035120;28;20045;-68
2023/03/01 03:15:39;;;;;;;47.92;21.38;;;-2.50;99.90;;;;;;5046538;28;20045;-68
2023/03/01 03:18:11;;;;;;;42.72;21.10;;;-2.60;99.90;;;;;;5054807;28;20045;-68
2023/03/01 03:20:40;;;;;;;42.00;21.15;;;-2.60;99.90;;;;;;5043158;28;20045;-68
2023/03/01 03:23:06;;;;;;;38.13;20.75;;;-2.70;99.90;;;;;;5049913;28;20051;-68
2023/03/01 03:25:31;;;;;;;41.30;20.90;;;-2.70;99.90;;;;;;5044329;28;20057;-68
2023/03/01 03:27:57;;;;;;;42.90;22.30;;;-2.80;99.90;;;;;;5039788;28;20037;-68
2023/03/01 03:30:31;;;;;;;126.28;23.33;;;-2.90;99.90;;;;;;5043121;28;20037;-69
2023/03/01 03:32:58;;;;;;;155.75;24.45;;;-3.00;99.90;;;;;;5051482;28;20033;-69
2023/03/01 03:35:30;;;;;;;81.00;22.30;;;-3.10;99.90;;;;;;5051689;28;20373;-69
2023/03/01 03:38:03;;;;;;;43.00;21.90;;;-3.20;99.90;;;;;;5049686;28;20123;-69
2023/03/01 03:40:33;;;;;;;43.55;22.52;;;-3.30;99.90;;;;;;5045247;28;20432;-68
2023/03/01 03:42:58;;;;;;;40.58;21.05;;;-3.30;99.90;;;;;;5045176;28;20042;-68
2023/03/01 03:45:24;;;;;;;42.22;22.42;;;-3.40;99.90;;;;;;5054021;28;20047;-69
2023/03/01 03:47:50;;;;;;;53.78;22.52;;;-3.40;99.90;;;;;;5063069;28;20041;-69
2023/03/01 03:50:17;;;;;;;57.92;22.13;;;-3.40;99.90;;;;;;5044976;28;20443;-68
2023/03/01 03:52:43;;;;;;;56.05;23.55;;;-3.30;99.90;;;;;;5041655;28;20045;-68
2023/03/01 03:55:10;;;;;;;43.10;22.38;;;-3.30;99.90;;;;;;5047097;28;20052;-68
2023/03/01 03:57:42;;;;;;;44.65;21.15;;;-3.30;99.90;;;;;;5048791;28;20052;-69
2023/03/01 04:00:12;;;;;;;53.70;22.27;;;-3.30;99.90;;;;;;5041429;28;20056;-69
2023/03/01 04:02:45;;;;;;;57.22;22.15;;;-3.30;99.90;;;;;;5049569;28;20044;-69
2023/03/01 04:05:14;;;;;;;62.25;21.85;;;-3.30;99.90;;;;;;5034703;28;20037;-69
2023/03/01 04:07:40;;;;;;;47.63;20.60;;;-3.30;99.90;;;;;;5053727;28;20499;-69
2023/03/01 04:10:09;;;;;;;63.78;22.20;;;-3.40;99.90;;;;;;5043116;28;20107;-68
2023/03/01 04:12:35;;;;;;;42.50;20.90;;;-3.30;99.90;;;;;;5043934;28;20116;-69
2023/03/01 04:15:12;;;;;;;77.93;23.27;;;-3.40;99.90;;;;;;5047606;28;20075;-68
2023/03/01 04:17:39;;;;;;;109.65;23.60;;;-3.30;99.90;;;;;;5042128;28;20451;-68
2023/03/01 04:20:05;;;;;;;82.05;23.88;;;-3.40;99.90;;;;;;5049243;28;20098;-68
2023/03/01 04:22:31;;;;;;;75.70;24.27;;;-3.40;99.90;;;;;;5041090;28;20033;-69
2023/03/01 04:24:58;;;;;;;88.88;23.67;;;-3.40;99.90;;;;;;5064066;28;20068;-69
2023/03/01 04:27:23;;;;;;;47.50;23.48;;;-3.40;99.90;;;;;;5042455;28;20084;-68
2023/03/01 04:29:49;;;;;;;42.28;21.83;;;-3.40;99.90;;;;;;5050643;28;20433;-69
2023/03/01 04:32:16;;;;;;;43.17;21.55;;;-3.50;99.90;;;;;;5066385;28;20033;-69
2023/03/01 04:34:41;;;;;;;44.30;22.50;;;-3.60;99.90;;;;;;5057567;28;20059;-69
2023/03/01 04:37:07;;;;;;;44.72;21.88;;;-3.60;99.90;;;;;;5044092;28;20037;-69
2023/03/01 04:39:45;;;;;;;48.10;20.85;;;-3.70;99.90;;;;;;5044447;28;20036;-69
2023/03/01 04:42:16;;;;;;;185.52;26.25;;;-3.80;99.90;;;;;;5049191;28;20045;-69
2023/03/01 04:44:43;;;;;;;266.50;31.53;;;-4.00;99.90;;;;;;5046078;28;20061;-69
2023/03/01 04:47:09;;;;;;;122.20;26.45;;;-4.10;99.90;;;;;;5044043;28;20415;-69
2023/03/01 04:49:34;;;;;;;118.00;23.85;;;-4.20;99.90;;;;;;5040675;28;20040;-69
2023/03/01 04:52:01;;;;;;;90.55;23.73;;;-4.40;99.90;;;;;;5048872;28;20050;-69
2023/03/01 04:54:36;;;;;;;88.65;22.75;;;-4.40;99.90;;;;;;5043823;28;20037;-69
2023/03/01 04:57:03;;;;;;;66.57;22.65;;;-4.50;99.90;;;;;;5039949;28;20138;-69
2023/03/01 04:59:29;;;;;;;91.82;23.05;;;-4.40;99.90;;;;;;5041542;28;20040;-69
2023/03/01 05:01:56;;;;;;;92.32;22.63;;;-4.40;99.90;;;;;;5040110;28;20034;-69
2023/03/01 05:04:22;;;;;;;74.78;24.75;;;-4.40;99.90;;;;;;5045462;28;20040;-69
2023/03/01 05:06:48;;;;;;;194.32;28.75;;;-4.40;99.90;;;;;;5037563;28;20037;-69
2023/03/01 05:09:14;;;;;;;169.60;26.27;;;-4.50;99.90;;;;;;5044401;28;20391;-69
2023/03/01 05:11:39;;;;;;;260.42;31.77;;;-4.50;99.90;;;;;;5047657;28;20032;-69
2023/03/01 05:14:06;;;;;;;183.70;25.50;;;-4.40;99.90;;;;;;5044468;28;20036;-69
2023/03/01 05:16:32;;;;;;;193.55;27.33;;;-4.50;99.90;;;;;;5043675;28;20043;-69
2023/03/01 05:18:59;;;;;;;95.18;22.75;;;-4.40;99.90;;;;;;5027089;28;20116;-69
2023/03/01 05:21:25;;;;;;;40.63;20.60;;;-4.50;99.90;;;;;;5039229;28;20077;-69
2023/03/01 05:23:50;;;;;;;39.35;19.45;;;-4.50;99.90;;;;;;5045717;28;20073;-69
2023/03/01 05:26:21;;;;;;;38.10;19.58;;;-4.50;99.90;;;;;;5038570;28;20410;-69
2023/03/01 05:28:47;;;;;;;43.97;21.50;;;-4.50;99.90;;;;;;5036111;28;20044;-69
2023/03/01 05:31:13;;;;;;;42.33;21.10;;;-4.50;99.90;;;;;;5056784;28;20059;-69
2023/03/01 05:33:40;;;;;;;41.15;20.83;;;-4.50;99.90;;;;;;5034998;28;20482;-69
2023/03/01 05:36:08;;;;;;;37.95;19.65;;;-4.50;99.90;;;;;;5038763;28;20045;-69
2023/03/01 05:38:34;;;;;;;45.13;22.05;;;-4.50;99.90;;;;;;5039311;28;20492;-69
2023/03/01 05:40:59;;;;;;;44.05;21.58;;;-4.50;99.90;;;;;;5035002;28;20045;-69
2023/03/01 05:43:25;;;;;;;41.15;20.85;;;-4.50;99.90;;;;;;5034054;28;20128;-69
2023/03/01 05:45:51;;;;;;;41.13;20.38;;;-4.50;99.90;;;;;;5041386;28;20029;-70
2023/03/01 05:48:19;;;;;;;42.30;20.42;;;-4.50;99.90;;;;;;5037914;28;20098;-69
2023/03/01 05:50:46;;;;;;;39.53;20.27;;;-4.50;99.90;;;;;;5045174;28;20392;-69
2023/03/01 05:53:19;;;;;;;38.92;20.33;;;-4.50;99.90;;;;;;5044374;28;20044;-69
2023/03/01 05:55:47;;;;;;;35.47;18.58;;;-4.60;99.90;;;;;;5046627;28;20120;-69
2023/03/01 05:58:15;;;;;;;33.63;18.23;;;-4.50;99.90;;;;;;5047427;28;20122;-69
2023/03/01 06:00:42;;;;;;;35.30;19.38;;;-4.50;99.90;;;;;;5041227;28;20052;-69
2023/03/01 06:03:11;;;;;;;42.08;20.95;;;-4.60;99.90;;;;;;5059809;28;20049;-69
2023/03/01 06:05:37;;;;;;;39.30;20.23;;;-4.50;99.90;;;;;;5034368;28;20090;-69
2023/03/01 06:08:03;;;;;;;37.95;19.63;;;-4.50;99.90;;;;;;5037316;28;20424;-69
2023/03/01 06:10:29;;;;;;;38.10;20.05;;;-4.50;99.90;;;;;;5046104;28;20078;-69
2023/03/01 06:12:55;;;;;;;43.33;20.92;;;-4.50;99.90;;;;;;5036054;28;20076;-69
2023/03/01 06:15:21;;;;;;;39.17;19.13;;;-4.50;99.90;;;;;;5034649;28;20038;-69
2023/03/01 06:17:46;;;;;;;43.90;20.83;;;-4.50;99.90;;;;;;5050752;28;20060;-69
2023/03/01 06:20:21;;;;;;;41.75;20.70;;;-4.60;99.90;;;;;;5041737;28;20045;-69
2023/03/01 06:22:49;;;;;;;40.20;20.30;;;-4.60;99.90;;;;;;5048464;28;20040;-70
2023/03/01 06:25:17;;;;;;;41.60;20.27;;;-4.60;99.90;;;;;;5037823;28;20040;-70
2023/03/01 06:27:43;;;;;;;36.55;18.80;;;-4.60;99.90;;;;;;5055108;28;20045;-70
2023/03/01 06:30:11;;;;;;;35.50;18.45;;;-4.70;99.90;;;;;;5040849;28;20484;-70
2023/03/01 06:32:41;;;;;;;32.50;16.95;;;-4.60;99.90;;;;;;5041534;28;20037;-70
2023/03/01 06:35:07;;;;;;;34.05;18.10;;;-4.60;99.90;;;;;;5044898;28;20029;-70
2023/03/01 06:37:33;;;;;;;33.28;17.77;;;-4.60;99.90;;;;;;5044500;28;20041;-70
2023/03/01 06:39:59;;;;;;;34.17;18.60;;;-4.50;99.90;;;;;;5044094;28;20044;-70
2023/03/01 06:42:24;;;;;;;34.95;18.17;;;-4.50;99.90;;;;;;5043323;28;20072;-70
2023/03/01 06:44:50;;;;;;;36.33;18.77;;;-4.40;99.90;;;;;;5038578;28;20090;-70
2023/03/01 06:47:15;;;;;;;36.47;18.27;;;-4.40;99.90;;;;;;5035470;28;21741;-70
2023/03/01 06:49:41;;;;;;;39.17;18.98;;;-4.30;99.90;;;;;;5037030;28;20041;-70
2023/03/01 06:52:06;;;;;;;37.13;19.23;;;-4.20;99.90;;;;;;5039351;28;20048;-70
2023/03/01 06:54:32;;;;;;;40.45;20.63;;;-4.20;99.90;;;;;;5036088;28;20072;-70
2023/03/01 06:56:58;;;;;;;39.55;20.27;;;-4.20;99.90;;;;;;5035926;28;20476;-70
2023/03/01 06:59:23;;;;;;;38.13;19.58;;;-4.20;99.90;;;;;;5043087;28;21524;-70
2023/03/01 07:01:49;;;;;;;40.25;20.38;;;-4.00;99.90;;;;;;5054944;28;20033;-70
2023/03/01 07:04:14;;;;;;;41.50;21.20;;;-4.00;99.90;;;;;;5041602;28;20131;-70
2023/03/01 07:06:40;;;;;;;42.00;20.40;;;-4.00;99.90;;;;;;5042472;28;20123;-70
2023/03/01 07:09:06;;;;;;;42.58;21.17;;;-3.90;99.90;;;;;;5043520;28;20119;-70
2023/03/01 07:11:31;;;;;;;40.78;20.27;;;-3.90;99.90;;;;;;5038193;28;20049;-70
2023/03/01 07:13:58;;;;;;;39.55;20.48;;;-3.80;99.90;;;;;;5045172;28;20037;-70
2023/03/01 07:16:23;;;;;;;46.30;20.05;;;-3.80;99.90;;;;;;5038808;28;20044;-70
2023/03/01 07:18:49;;;;;;;56.42;21.85;;;-3.80;99.90;;;;;;5054006;28;20033;-70
2023/03/01 07:21:16;;;;;;;47.95;21.05;;;-3.80;99.90;;;;;;5041362;28;20067;-71
2023/03/01 07:23:42;;;;;;;40.38;20.33;;;-3.70;99.90;;;;;;5042662;28;20055;-70
2023/03/01 07:26:07;;;;;;;39.83;19.77;;;-3.60;99.90;;;;;;5036904;28;20046;-70
2023/03/01 07:28:35;;;;;;;37.63;19.50;;;-3.60;99.90;;;;;;5042444;28;20500;-70
2023/03/01 07:31:05;;;;;;;41.05;20.45;;;-3.60;99.90;;;;;;5040872;28;20040;-70
2023/03/01 07:33:31;;;;;;;41.15;20.20;;;-3.50;99.90;;;;;;5035091;28;20685;-70
2023/03/01 07:36:02;;;;;;;37.42;20.25;;;-3.50;99.90;;;;;;5039659;28;20041;-70
2023/03/01 07:38:28;;;;;;;40.03;20.52;;;-3.50;99.90;;;;;;5026010;28;20042;-70
2023/03/01 07:40:58;;;;;;;38.88;20.45;;;-3.40;99.90;;;;;;5043314;28;20047;-70
2023/03/01 07:43:24;;;;;;;39.03;20.05;;;-3.30;99.90;;;;;;5042586;28;20102;-64
2023/03/01 07:45:50;;;;;;;43.33;21.48;;;-3.30;99.90;;;;;;5043370;28;20037;-69
2023/03/01 07:48:16;;;;;;;40.97;20.70;;;-3.30;99.90;;;;;;5061568;28;20033;-69
2023/03/01 07:50:41;;;;;;;41.97;21.15;;;-3.20;99.90;;;;;;5061747;28;20049;-69
2023/03/01 07:53:08;;;;;;;38.90;20.90;;;-3.00;99.90;;;;;;5054106;28;20444;-69
2023/03/01 07:55:33;;;;;;;44.08;22.23;;;-3.00;99.90;;;;;;5048993;28;20396;-69
2023/03/01 07:57:59;;;;;;;41.70;21.00;;;-2.90;99.90;;;;;;5034118;28;20030;-69
2023/03/01 08:00:24;;;;;;;43.50;21.60;;;-2.80;99.90;;;;;;5044983;28;20045;-69
2023/03/01 08:02:50;;;;;;;40.22;21.90;;;-2.70;99.90;;;;;;5034266;28;20049;-69
2023/03/01 08:05:16;;;;;;;42.30;22.17;;;-2.60;99.90;;;;;;5034177;28;20048;-69
2023/03/01 08:07:41;;;;;;;41.58;22.27;;;-2.50;99.90;;;;;;5034145;28;20046;-69
2023/03/01 08:10:08;;;;;;;50.20;23.98;;;-2.30;99.90;;;;;;5034146;28;20138;-69
2023/03/01 08:12:33;;;;;;;47.13;23.80;;;-2.20;99.90;;;;;;5034271;28;20049;-69
2023/03/01 08:14:59;;;;;;;44.35;23.65;;;-2.00;99.90;;;;;;5034125;28;20037;-69
2023/03/01 08:17:25;;;;;;;45.45;23.88;;;-1.90;99.90;;;;;;5033873;28;20041;-69
2023/03/01 08:23:17;;;;;;;49.80;24.25;;;-1.70;99.90;;;;;;5063109;28;20473;-68
2023/03/01 08:25:43;;;;;;;49.85;24.90;;;-1.50;99.90;;;;;;5051851;28;20041;-68
2023/03/01 08:28:08;;;;;;;56.20;26.77;;;-1.40;99.90;;;;;;5053673;28;20498;-68
2023/03/01 08:30:34;;;;;;;55.28;26.38;;;-1.30;99.90;;;;;;5053558;28;20041;-68
2023/03/01 08:33:00;;;;;;;54.70;26.15;;;-1.10;99.90;;;;;;5053563;28;20040;-68
2023/03/01 08:35:25;;;;;;;53.80;25.55;;;-1.00;99.90;;;;;;5047424;28;20041;-69
2023/03/01 08:41:32;;;;;;;62.30;27.92;;;-0.70;99.90;;;;;;5060686;28;20035;-69
2023/03/01 08:44:00;;;;;;;64.90;29.65;;;-0.50;99.90;;;;;;5066848;28;20037;-69
2023/03/01 08:46:37;;;;;;;63.72;30.20;;;-0.30;99.90;;;;;;5059675;28;20446;-69
2023/03/01 08:49:13;;;;;;;64.57;29.95;;;-0.10;99.90;;;;;;5061812;28;20048;-69
2023/03/01 08:51:39;;;;;;;63.72;31.92;;;0.10;99.90;;;;;;5053160;28;20045;-70
2023/03/01 08:54:10;;;;;;;64.32;33.15;;;0.30;99.90;;;;;;5052928;28;20120;-70
2023/03/01 08:56:36;;;;;;;65.22;33.05;;;0.40;99.90;;;;;;5063249;28;20391;-70
2023/03/01 08:59:02;;;;;;;66.47;32.90;;;0.50;99.90;;;;;;5054577;28;20052;-70
2023/03/01 09:01:28;;;;;;;69.45;31.83;;;0.70;99.90;;;;;;5050368;28;20041;-70
2023/03/01 09:03:53;;;;;;;66.70;30.83;;;0.80;99.90;;;;;;5048547;28;20464;-70
2023/03/01 09:06:20;;;;;;;62.00;31.27;;;0.90;99.90;;;;;;5049487;28;20052;-70
2023/03/01 09:08:48;;;;;;;57.75;28.95;;;1.00;99.90;;;;;;5058339;28;20029;-70
2023/03/01 09:11:19;;;;;;;60.40;29.38;;;1.20;99.90;;;;;;5047776;28;20124;-69
2023/03/01 09:13:47;;;;;;;52.08;27.20;;;1.20;99.90;;;;;;5051781;28;20127;-69
2023/03/01 09:16:14;;;;;;;49.70;25.67;;;1.40;99.90;;;;;;5032346;28;20396;-69
2023/03/01 09:18:40;;;;;;;43.83;21.80;;;1.60;99.90;;;;;;5038330;28;20033;-69
2023/03/01 09:21:08;;;;;;;40.63;20.27;;;1.70;99.90;;;;;;5038006;28;20039;-69
2023/03/01 09:23:40;;;;;;;37.25;19.23;;;1.80;99.90;;;;;;5056099;28;20064;-69
2023/03/01 09:26:11;;;;;;;38.50;19.58;;;1.90;99.90;;;;;;5040803;28;20127;-68
2023/03/01 09:28:37;;;;;;;32.80;17.67;;;2.00;99.90;;;;;;5044400;28;20080;-68
2023/03/01 09:31:04;;;;;;;29.60;16.30;;;2.20;99.90;;;;;;5053797;28;20428;-68
2023/03/01 09:33:31;;;;;;;33.42;17.13;;;2.30;99.90;;;;;;5045309;28;20045;-68
2023/03/01 09:36:05;;;;;;;29.90;17.60;;;2.40;99.90;;;;;;5041181;28;20095;-67
2023/03/01 09:38:31;;;;;;;28.83;15.93;;;2.50;99.90;;;;;;5049827;28;20083;-66
2023/03/01 09:40:59;;;;;;;22.80;14.23;;;2.70;99.90;;;;;;5045168;28;20068;-67
2023/03/01 09:43:46;;;;;;;23.15;13.73;;;2.80;99.90;;;;;;5050395;28;20045;-66
2023/03/01 09:46:16;;;;;;;27.83;13.70;;;2.90;99.90;;;;;;5036738;28;20115;-67
2023/03/01 09:48:48;;;;;;;21.08;12.43;;;3.00;99.90;;;;;;5051720;28;20041;-67
2023/03/01 09:51:22;;;;;;;21.23;11.82;;;3.10;99.90;;;;;;5038596;28;20080;-67
2023/03/01 09:53:47;;;;;;;17.33;10.70;;;3.20;99.90;;;;;;5042998;28;20098;-67
2023/03/01 09:56:27;;;;;;;15.85;10.05;;;3.30;99.90;;;;;;5044062;28;20450;-67
2023/03/01 09:59:14;;;;;;;17.92;11.15;;;3.40;99.90;;;;;;5044047;28;20044;-67
2023/03/01 10:02:18;;;;;;;17.73;10.38;;;3.50;99.90;;;;;;5037711;28;20052;-67
2023/03/01 10:04:48;;;;;;;17.50;9.50;;;3.60;99.90;;;;;;5040394;28;20086;-67
2023/03/01 10:07:13;;;;;;;16.55;9.65;;;3.70;99.90;;;;;;5042378;28;20094;-67
2023/03/01 10:09:45;;;;;;;15.10;9.15;;;3.80;99.90;;;;;;5043855;28;20041;-67
2023/03/01 10:12:17;;;;;;;15.50;8.65;;;3.80;99.90;;;;;;5041778;28;20044;-67
2023/03/01 10:15:10;;;;;;;14.05;7.57;;;3.90;99.90;;;;;;5038999;28;20076;-67
2023/03/01 10:17:44;;;;;;;13.15;7.22;;;4.00;99.90;;;;;;5041045;28;20041;-66
2023/03/01 10:20:25;;;;;;;12.60;7.30;;;4.10;99.90;;;;;;5043542;28;20037;-67
2023/03/01 10:22:52;;;;;;;14.07;7.40;;;4.20;99.90;;;;;;5039551;28;20036;-67
2023/03/01 10:25:38;;;;;;;11.13;6.50;;;4.20;99.90;;;;;;5047966;28;20072;-66
2023/03/01 10:28:45;;;;;;;11.35;6.88;;;4.30;99.90;;;;;;5038271;28;20045;-66
2023/03/01 10:31:43;;;;;;;10.85;6.53;;;4.40;99.90;;;;;;5030177;28;20148;-66
2023/03/01 10:34:30;;;;;;;10.55;5.45;;;4.50;99.90;;;;;;5035719;28;20474;-66
2023/03/01 10:37:00;;;;;;;13.65;6.88;;;4.60;99.90;;;;;;5047837;28;20116;-66
2023/03/01 10:39:26;;;;;;;10.20;6.50;;;4.70;99.90;;;;;;5037297;28;20454;-66
2023/03/01 10:41:59;;;;;;;8.95;5.60;;;4.70;99.90;;;;;;5039294;28;20042;-66
2023/03/01 10:44:37;;;;;;;;;;;4.80;99.90;;;;;;5046505;28;20077;-66
2023/03/01 10:47:02;;;;;;;9.60;5.63;;;4.90;99.90;;;;;;5047296;28;19992;-66
2023/03/01 10:49:28;;;;;;;10.35;6.00;;;5.00;99.90;;;;;;5048800;28;20439;-66
2023/03/01 10:51:54;;;;;;;9.00;5.35;;;5.00;99.90;;;;;;5041608;28;20396;-66
2023/03/01 10:54:27;;;;;;;7.88;5.75;;;5.10;99.90;;;;;;5041108;28;20444;-66
2023/03/01 10:56:55;;;;;;;8.68;5.55;;;5.10;99.90;;;;;;5056351;28;20080;-66
2023/03/01 10:59:35;;;;;;;10.18;6.00;;;5.20;99.90;;;;;;5035915;28;20095;-66
2023/03/01 11:02:29;;;;;;;11.20;6.15;;;5.20;99.90;;;;;;5037405;28;20511;-66
2023/03/01 11:05:09;;;;;;;12.88;6.13;;;5.20;99.90;;;;;;5040811;28;20410;-66
2023/03/01 11:07:51;;;;;;;11.02;6.53;;;5.30;99.90;;;;;;5056432;28;20037;-65
2023/03/01 11:10:22;;;;;;;11.95;6.18;;;5.40;99.90;;;;;;5036804;28;20041;-65
2023/03/01 11:12:48;;;;;;;11.32;6.45;;;5.40;99.90;;;;;;5037499;28;20400;-66
2023/03/01 11:15:27;;;;;;;9.60;6.20;;;5.50;99.90;;;;;;5041537;28;20032;-66
2023/03/01 11:17:55;;;;;;;9.77;6.15;;;5.50;99.90;;;;;;5039907;28;20048;-65
2023/03/01 11:20:29;;;;;;;9.88;6.32;;;5.60;99.90;;;;;;5040353;28;20507;-66
2023/03/01 11:22:59;;;;;;;9.05;5.85;;;5.60;99.90;;;;;;5041633;28;20395;-65
2023/03/01 11:25:33;;;;;;;9.95;6.57;;;5.70;99.90;;;;;;5039389;28;20151;-66
2023/03/01 11:28:01;;;;;;;11.15;6.82;;;5.80;99.90;;;;;;5054574;28;20491;-65
2023/03/01 11:30:39;;;;;;;10.00;6.47;;;5.90;99.90;;;;;;5039676;28;20049;-65
2023/03/01 11:33:08;;;;;;;10.82;7.00;;;5.90;99.90;;;;;;5032949;28;20045;-65
2023/03/01 11:35:37;;;;;;;10.18;6.57;;;6.00;99.90;;;;;;5064757;28;20048;-65
2023/03/01 11:38:21;;;;;;;10.30;6.85;;;6.00;99.90;;;;;;5038453;28;20046;-65
2023/03/01 11:41:05;;;;;;;13.25;7.80;;;6.10;99.90;;;;;;5042750;28;20556;-66
2023/03/01 11:43:41;;;;;;;12.65;7.72;;;6.10;99.90;;;;;;5044423;28;20041;-65
2023/03/01 11:46:32;;;;;;;13.35;7.55;;;6.10;99.90;;;;;;5036593;28;20080;-65
2023/03/01 11:49:01;;;;;;;12.38;7.47;;;6.20;99.90;;;;;;5031257;28;20053;-65
2023/03/01 11:51:57;;;;;;;10.50;6.65;;;6.20;99.90;;;;;;5041607;28;20133;-65
2023/03/01 11:54:34;;;;;;;9.85;6.97;;;6.20;99.90;;;;;;5038566;28;20041;-65
2023/03/01 11:57:09;;;;;;;11.65;7.32;;;6.30;99.90;;;;;;5057277;28;20050;-65
2023/03/01 11:59:58;;;;;;;12.07;7.28;;;6.40;99.90;;;;;;5031767;28;20037;-65
2023/03/01 12:02:36;;;;;;;11.07;7.38;;;6.40;99.90;;;;;;5034577;28;20183;-66
2023/03/01 12:05:42;;;;;;;12.02;7.60;;;6.50;99.90;;;;;;5040188;28;20143;-65
2023/03/01 12:08:13;;;;;;;15.15;9.07;;;6.50;99.90;;;;;;5052991;28;20060;-66
2023/03/01 12:10:56;;;;;;;14.90;9.20;;;6.50;99.90;;;;;;5045468;28;20064;-64
2023/03/01 12:13:40;;;;;;;;;;;6.50;99.90;;;;;;5048140;28;20139;-64
2023/03/01 12:16:39;;;;;;;14.82;7.82;;;6.60;99.90;;;;;;5045598;28;20570;-64
2023/03/01 12:19:38;;;;;;;11.57;7.40;;;6.70;99.90;;;;;;5056634;28;20044;-65
2023/03/01 12:22:30;;;;;;;15.10;8.63;;;6.70;99.90;;;;;;5040269;28;20296;-65
2023/03/01 12:25:15;;;;;;;13.52;8.15;;;6.70;99.90;;;;;;5024920;28;20044;-65
2023/03/01 12:28:14;;;;;;;13.48;7.85;;;6.70;99.90;;;;;;5043944;28;20045;-66
2023/03/01 12:31:13;;;;;;;12.77;7.97;;;6.70;99.90;;;;;;5044748;28;20057;-66
2023/03/01 12:33:42;;;;;;;13.07;7.90;;;6.80;99.90;;;;;;5043036;28;20077;-66
2023/03/01 12:36:18;;;;;;;10.57;7.05;;;6.80;99.90;;;;;;5044232;28;20044;-65
2023/03/01 12:38:48;;;;;;;12.75;7.65;;;6.80;99.90;;;;;;5041179;28;20037;-65
2023/03/01 12:41:32;;;;;;;12.60;7.45;;;6.90;99.90;;;;;;5040741;28;20076;-65
2023/03/01 12:44:20;;;;;;;13.68;7.57;;;6.90;99.90;;;;;;5050311;28;20041;-65
2023/03/01 12:46:52;;;;;;;10.68;7.32;;;6.90;99.90;;;;;;5043342;28;20040;-65
2023/03/01 12:49:42;;;;;;;12.13;6.97;;;6.90;99.90;;;;;;5049221;28;20064;-65
2023/03/01 12:52:29;;;;;;;11.50;7.15;;;7.00;99.90;;;;;;5042029;28;20045;-66
2023/03/01 12:54:57;;;;;;;14.02;8.27;;;7.00;99.90;;;;;;5048832;28;20075;-66
2023/03/01 12:57:36;;;;;;;13.30;8.38;;;6.90;99.90;;;;;;5039711;28;20040;-65
2023/03/01 13:00:09;;;;;;;12.52;7.32;;;6.90;99.90;;;;;;5046888;28;20364;-65
2023/03/01 13:02:45;;;;;;;10.90;6.90;;;7.00;99.90;;;;;;5043770;28;20043;-65
2023/03/01 13:05:23;;;;;;;14.32;7.43;;;7.00;99.90;;;;;;5043684;28;20043;-66
2023/03/01 13:08:09;;;;;;;12.30;7.90;;;7.00;99.90;;;;;;5040110;28;20045;-64